logo
Search for airport 
image banner adimage banner adimage banner ad
image banner ad

FAAE - Aberdeen

Located in Aberdeen, South Africa

ICAO - FAAE, IATA - AGH

Data provided by Airmate  

General information

Coordinates: S32°27'59" E24°3'50"
Elevation is 2460 feet MSL.
Magnetic variation is -26° East
View others Airports in Eastern Cape

Operational data

Special qualification required
Current time UTC:
Current local time:
Weather at : - ( 0 km )
METAR: SBOI 181005Z AUTO 00000KT 2800 // FEW001/// SCT004/// OVC009/// 25/25 Q1010
View NOTAMs / SUP AIP / TFR affecting this airport [VIEW]
Communications frequencies: [VIEW]

Runways:

RWY identifierQFULength (ft)Width (ft)SurfaceLDA (ft)
1080°365866SAND
28260°365866SAND
13111°324866GRASS
31291°324866GRASS
29260°342761GRAV
1180°342761GRAV
32291°300087GRAV
14111°300087GRAV

Airport contact information

Address: Aberdeen South Africa

Satellite view of FAAE